createdAt,value
2023-04-09T00:01:11.329Z,40.65
2023-04-09T00:06:13.722Z,40.69
2023-04-09T00:11:15.987Z,40.67
2023-04-09T00:16:18.061Z,40.56
2023-04-09T00:21:21.097Z,40.54
2023-04-09T00:26:23.204Z,40.48
2023-04-09T00:31:25.305Z,40.92
2023-04-09T00:36:27.252Z,40.52
2023-04-09T00:41:29.320Z,40.86
2023-04-09T00:46:32.898Z,40.75
2023-04-09T00:51:36.204Z,40.66
2023-04-09T00:56:38.841Z,40.97
2023-04-09T01:01:40.910Z,40.80
2023-04-09T01:06:49.895Z,40.81
2023-04-09T01:12:00.338Z,40.96
2023-04-09T01:17:19.398Z,40.77
2023-04-09T01:23:01.441Z,40.96
2023-04-09T01:28:19.888Z,40.64
2023-04-09T01:33:23.803Z,40.72
2023-04-09T01:38:27.111Z,41.09
2023-04-09T01:43:30.879Z,41.04
2023-04-09T01:48:34.553Z,40.75
2023-04-09T01:53:36.924Z,40.92
2023-04-09T01:58:39.155Z,40.83
2023-04-09T02:03:48.229Z,40.93
2023-04-09T02:08:54.238Z,40.89
2023-04-09T02:13:58.659Z,40.85
2023-04-09T02:19:03.881Z,40.81
2023-04-09T02:24:06.395Z,41.02
2023-04-09T02:29:08.286Z,41.19
2023-04-09T02:34:10.545Z,41.04
2023-04-09T02:39:12.471Z,40.94
2023-04-09T02:44:14.640Z,41.09
2023-04-09T02:49:16.999Z,41.12
2023-04-09T02:54:19.311Z,41.25
2023-04-09T02:59:21.221Z,41.25
2023-04-09T03:04:23.353Z,41.33
2023-04-09T03:09:25.564Z,41.05
2023-04-09T03:14:27.496Z,41.06
2023-04-09T03:19:31.381Z,41.02
2023-04-09T03:24:33.897Z,41.18
2023-04-09T03:29:35.942Z,41.32
2023-04-09T03:34:38.172Z,41.36
2023-04-09T03:39:40.287Z,41.07
2023-04-09T03:44:42.039Z,41.18
2023-04-09T03:49:43.964Z,41.05
2023-04-09T03:54:46.015Z,41.00
2023-04-09T03:59:48.852Z,41.09
2023-04-09T04:04:51.256Z,41.25
2023-04-09T04:09:53.404Z,41.46
2023-04-09T04:14:55.611Z,41.57
2023-04-09T04:19:57.655Z,41.35
2023-04-09T04:24:59.684Z,41.45
2023-04-09T04:30:02.546Z,41.33
2023-04-09T04:35:04.771Z,41.19
2023-04-09T04:40:08.495Z,41.28
2023-04-09T04:45:10.671Z,41.11
2023-04-09T04:50:12.741Z,41.32
2023-04-09T04:55:14.753Z,41.20
2023-04-09T05:00:16.730Z,41.44
2023-04-09T05:05:18.680Z,41.43
2023-04-09T05:10:21.116Z,41.41
2023-04-09T05:15:23.030Z,41.16
2023-04-09T05:20:25.155Z,41.55
2023-04-09T05:25:27.127Z,41.31
2023-04-09T05:30:29.253Z,41.22
2023-04-09T05:35:31.496Z,41.37
2023-04-09T05:40:33.528Z,41.24
2023-04-09T05:45:36.516Z,41.48
2023-04-09T05:50:53.506Z,41.12
2023-04-09T05:55:56.792Z,41.36
2023-04-09T06:00:58.921Z,41.46
2023-04-09T06:06:01.242Z,41.49
2023-04-09T06:11:04.085Z,41.43
2023-04-09T06:16:07.624Z,41.45
2023-04-09T06:21:10.049Z,41.19
2023-04-09T06:26:12.235Z,41.46
2023-04-09T06:31:14.173Z,41.53
2023-04-09T06:36:16.439Z,41.48
2023-04-09T06:41:21.570Z,41.50
2023-04-09T06:46:24.030Z,41.46
2023-04-09T06:51:26.071Z,41.56
2023-04-09T06:56:28.023Z,41.71
2023-04-09T07:01:30.237Z,41.58
2023-04-09T07:06:32.545Z,41.61
2023-04-09T07:11:34.593Z,41.36
2023-04-09T07:16:37.028Z,41.40
2023-04-09T07:21:39.212Z,41.48
2023-04-09T07:26:41.768Z,41.35
2023-04-09T07:31:45.273Z,41.60
2023-04-09T07:36:47.288Z,41.61
2023-04-09T07:41:49.482Z,41.13
2023-04-09T07:46:51.668Z,40.93
2023-04-09T07:51:54.132Z,40.78
2023-04-09T07:56:56.970Z,40.67
2023-04-09T08:01:59.719Z,42.01
2023-04-09T08:07:01.773Z,43.07
2023-04-09T08:12:04.126Z,43.01
2023-04-09T08:17:06.495Z,43.22
2023-04-09T08:22:08.386Z,43.85
2023-04-09T08:27:10.320Z,43.74
2023-04-09T08:32:12.979Z,44.04
2023-04-09T08:37:14.987Z,44.11
2023-04-09T08:42:17.013Z,44.40
2023-04-09T08:47:20.882Z,44.72
2023-04-09T08:52:32.683Z,44.65
2023-04-09T08:57:41.481Z,44.11
2023-04-09T09:03:07.351Z,44.52
2023-04-09T09:08:10.831Z,45.00
2023-04-09T09:13:23.817Z,44.54
2023-04-09T09:18:42.977Z,44.43
2023-04-09T09:23:45.691Z,44.13
2023-04-09T09:28:49.173Z,44.23
2023-04-09T09:33:51.558Z,44.06
2023-04-09T09:38:55.855Z,44.82
2023-04-09T09:43:58.022Z,45.17
2023-04-09T09:49:00.196Z,44.99
2023-04-09T09:54:03.411Z,45.08
2023-04-09T09:59:17.238Z,44.66
2023-04-09T10:04:21.555Z,43.55
2023-04-09T10:09:24.255Z,43.73
2023-04-09T10:14:29.142Z,43.59
2023-04-09T10:19:47.559Z,43.26
2023-04-09T10:24:51.577Z,43.18
2023-04-09T10:29:53.536Z,43.12
2023-04-09T10:34:59.728Z,43.07
2023-04-09T10:40:04.215Z,43.18
2023-04-09T10:45:07.818Z,42.80
2023-04-09T10:50:22.202Z,42.94
2023-04-09T10:55:55.575Z,43.14
2023-04-09T11:01:02.017Z,43.09
2023-04-09T11:06:07.633Z,43.22
2023-04-09T11:11:09.959Z,42.96
2023-04-09T11:16:12.777Z,42.68
2023-04-09T11:21:32.225Z,43.08
2023-04-09T11:26:37.648Z,43.31
2023-04-09T11:31:39.823Z,43.30
2023-04-09T11:36:41.959Z,42.90
2023-04-09T11:41:44.001Z,42.87
2023-04-09T11:46:46.624Z,43.31
2023-04-09T11:51:48.687Z,43.32
2023-04-09T11:56:56.347Z,42.82
2023-04-09T12:01:59.037Z,42.77
2023-04-09T12:07:08.926Z,43.07
2023-04-09T12:12:11.825Z,43.16
2023-04-09T12:17:13.868Z,42.17
2023-04-09T12:22:15.763Z,42.59
2023-04-09T12:27:17.678Z,42.71
2023-04-09T12:32:19.902Z,42.50
2023-04-09T12:37:23.014Z,41.92
2023-04-09T12:42:24.893Z,42.13
2023-04-09T12:47:27.959Z,42.11
2023-04-09T12:52:30.024Z,42.16
2023-04-09T12:57:32.302Z,41.97
2023-04-09T13:02:35.011Z,41.94
2023-04-09T13:07:37.213Z,41.63
2023-04-09T13:12:39.258Z,42.02
2023-04-09T13:17:41.527Z,41.67
2023-04-09T13:22:47.308Z,41.53
2023-04-09T13:27:49.383Z,41.84
2023-04-09T13:32:51.682Z,41.61
2023-04-09T13:37:53.725Z,41.71
2023-04-09T13:42:55.704Z,41.55
2023-04-09T13:47:58.080Z,41.65
2023-04-09T13:53:03.132Z,41.55
2023-04-09T13:58:05.014Z,41.29
2023-04-09T14:03:07.378Z,41.49
2023-04-09T14:08:09.418Z,41.75
2023-04-09T14:13:12.633Z,41.30
2023-04-09T14:18:14.749Z,41.38
2023-04-09T14:23:16.812Z,41.28
2023-04-09T14:28:19.054Z,41.24
2023-04-09T14:33:20.940Z,41.31
2023-04-09T14:38:24.635Z,41.29
2023-04-09T14:43:26.704Z,41.18
2023-04-09T14:48:28.506Z,41.23
2023-04-09T14:53:30.541Z,41.05
2023-04-09T14:58:32.560Z,41.33
2023-04-09T15:03:34.955Z,40.90
2023-04-09T15:08:37.299Z,40.85
2023-04-09T15:13:39.372Z,41.11
2023-04-09T15:18:41.460Z,40.97
2023-04-09T15:23:43.448Z,40.81
2023-04-09T15:28:46.462Z,40.95
2023-04-09T15:33:50.774Z,40.89
2023-04-09T15:38:56.184Z,40.59
2023-04-09T15:43:58.875Z,40.79
2023-04-09T15:49:00.916Z,41.06
2023-04-09T15:54:02.906Z,42.02
2023-04-09T15:59:05.658Z,43.65
2023-04-09T16:04:09.375Z,43.17
2023-04-09T16:09:11.735Z,42.55
2023-04-09T16:14:14.037Z,42.36
2023-04-09T16:19:18.203Z,42.42
2023-04-09T16:24:20.259Z,42.14
2023-04-09T16:29:22.291Z,42.26
2023-04-09T16:34:24.242Z,41.85
2023-04-09T16:39:26.455Z,41.72
2023-04-09T16:44:28.708Z,41.94
2023-04-09T16:49:31.991Z,41.77
2023-04-09T16:54:34.034Z,41.95
2023-04-09T16:59:35.915Z,41.61
2023-04-09T17:04:38.437Z,41.43
2023-04-09T17:09:40.529Z,41.51
2023-04-09T17:14:43.384Z,41.16
2023-04-09T17:19:45.304Z,42.10
2023-04-09T17:24:47.403Z,41.69
2023-04-09T17:29:49.666Z,42.19
2023-04-09T17:34:52.767Z,42.11
2023-04-09T17:39:55.479Z,42.27
2023-04-09T17:44:57.677Z,42.35
2023-04-09T17:50:00.598Z,42.24
2023-04-09T17:55:09.071Z,41.87
2023-04-09T18:00:11.819Z,41.95
2023-04-09T18:05:13.983Z,42.10
2023-04-09T18:10:16.259Z,41.90
2023-04-09T18:15:19.310Z,41.73
2023-04-09T18:20:21.317Z,41.70
2023-04-09T18:25:23.582Z,41.61
2023-04-09T18:30:26.675Z,41.24
2023-04-09T18:35:28.874Z,41.65
2023-04-09T18:40:30.952Z,41.72
2023-04-09T18:45:32.929Z,41.50
2023-04-09T18:50:35.308Z,41.19
2023-04-09T18:55:38.449Z,41.24
2023-04-09T19:00:40.452Z,41.08
2023-04-09T19:05:42.727Z,41.04
2023-04-09T19:10:45.187Z,40.92
2023-04-09T19:15:47.393Z,40.79
2023-04-09T19:20:49.855Z,41.19
2023-04-09T19:25:53.653Z,40.75
2023-04-09T19:30:55.462Z,41.15
2023-04-09T19:35:57.628Z,40.95
2023-04-09T19:40:59.872Z,41.16
2023-04-09T19:46:08.979Z,41.06
2023-04-09T19:51:20.846Z,41.21
2023-04-09T19:56:22.851Z,41.00
2023-04-09T20:01:24.977Z,41.19
2023-04-09T20:06:27.645Z,40.96
2023-04-09T20:11:29.683Z,40.85
2023-04-09T20:16:31.903Z,41.00
2023-04-09T20:21:34.581Z,41.09
2023-04-09T20:26:36.805Z,40.81
2023-04-09T20:31:38.924Z,41.06
2023-04-09T20:36:44.038Z,40.73
2023-04-09T20:41:46.345Z,40.76
2023-04-09T20:46:48.386Z,41.07
2023-04-09T20:51:50.566Z,40.97
2023-04-09T20:56:52.610Z,40.93
2023-04-09T21:01:56.304Z,40.93
2023-04-09T21:06:58.710Z,40.91
2023-04-09T21:12:03.320Z,41.00
2023-04-09T21:17:05.964Z,41.58
2023-04-09T21:22:08.085Z,42.57
2023-04-09T21:27:09.999Z,42.70
2023-04-09T21:32:12.293Z,42.43
2023-04-09T21:37:14.354Z,42.47
2023-04-09T21:42:16.444Z,42.23
2023-04-09T21:47:19.027Z,42.22
2023-04-09T21:52:21.268Z,42.14
2023-04-09T21:57:23.554Z,41.80
2023-04-09T22:02:25.769Z,41.87
2023-04-09T22:07:27.951Z,41.80
2023-04-09T22:12:30.103Z,41.58
2023-04-09T22:17:32.093Z,41.73
2023-04-09T22:22:34.204Z,41.95
2023-04-09T22:27:36.683Z,41.82
2023-04-09T22:32:38.692Z,42.07
2023-04-09T22:37:40.835Z,41.78
2023-04-09T22:42:43.699Z,41.73
2023-04-09T22:47:45.586Z,41.86
2023-04-09T22:52:47.585Z,41.39
2023-04-09T22:57:49.756Z,41.64
2023-04-09T23:02:51.965Z,41.41
2023-04-09T23:07:54.101Z,41.31
2023-04-09T23:12:56.156Z,41.46
2023-04-09T23:17:58.313Z,41.37
2023-04-09T23:23:00.610Z,41.16
2023-04-09T23:28:02.569Z,41.39
2023-04-09T23:33:04.828Z,41.41
2023-04-09T23:38:06.821Z,41.40
2023-04-09T23:43:08.754Z,41.26
2023-04-09T23:48:12.754Z,41.39
2023-04-09T23:53:14.828Z,41.31
2023-04-09T23:58:17.996Z,41.43
